createdAt,value
2023-04-07T00:00:12.686Z,7.47
2023-04-07T00:02:42.420Z,7.26
2023-04-07T00:05:13.610Z,7.25
2023-04-07T00:07:48.924Z,7.31
2023-04-07T00:10:23.551Z,7.25
2023-04-07T00:12:51.548Z,7.20
2023-04-07T00:15:19.585Z,7.11
2023-04-07T00:17:47.585Z,7.06
2023-04-07T00:20:17.115Z,7.05
2023-04-07T00:22:45.128Z,7.00
2023-04-07T00:25:13.066Z,7.06
2023-04-07T00:27:41.010Z,7.12
2023-04-07T00:30:09.870Z,7.17
2023-04-07T00:32:37.803Z,7.16
2023-04-07T00:35:06.217Z,7.10
2023-04-07T00:37:35.575Z,7.10
2023-04-07T00:40:04.152Z,7.09
2023-04-07T00:42:32.055Z,7.14
2023-04-07T00:44:59.968Z,7.00
2023-04-07T00:47:27.906Z,7.01
2023-04-07T00:49:56.120Z,6.95
2023-04-07T00:52:28.844Z,6.94
2023-04-07T00:54:58.212Z,6.93
2023-04-07T00:57:26.096Z,6.85
2023-04-07T00:59:54.371Z,6.84
2023-04-07T01:02:27.404Z,6.76
2023-04-07T01:04:58.288Z,6.72
2023-04-07T01:07:30.284Z,6.27
2023-04-07T01:10:06.134Z,6.33
2023-04-07T01:12:39.598Z,6.39
2023-04-07T01:15:11.832Z,6.39
2023-04-07T01:17:44.046Z,6.32
2023-04-07T01:20:15.422Z,6.11
2023-04-07T01:22:45.005Z,5.78
2023-04-07T01:25:40.022Z,5.41
2023-04-07T01:28:32.836Z,5.31
2023-04-07T01:31:02.847Z,5.00
2023-04-07T01:33:33.268Z,5.30
2023-04-07T01:36:02.388Z,5.36
2023-04-07T01:38:31.070Z,5.36
2023-04-07T01:41:00.014Z,5.17
2023-04-07T01:43:28.819Z,5.25
2023-04-07T01:45:57.623Z,5.23
2023-04-07T01:48:27.289Z,5.17
2023-04-07T01:50:56.336Z,4.99
2023-04-07T01:53:24.774Z,5.14
2023-04-07T01:55:53.699Z,5.26
2023-04-07T01:58:21.613Z,5.16
2023-04-07T02:00:50.821Z,5.09
2023-04-07T02:03:22.358Z,5.15
2023-04-07T02:05:55.307Z,5.02
2023-04-07T02:08:25.195Z,4.82
2023-04-07T02:10:54.118Z,4.86
2023-04-07T02:13:22.204Z,4.94
2023-04-07T02:15:51.535Z,4.98
2023-04-07T02:18:21.595Z,5.00
2023-04-07T02:20:51.442Z,5.01
2023-04-07T02:23:19.424Z,5.09
2023-04-07T02:25:47.344Z,5.00
2023-04-07T02:28:15.570Z,4.90
2023-04-07T02:30:43.483Z,4.46
2023-04-07T02:33:11.352Z,4.37
2023-04-07T02:35:39.280Z,4.32
2023-04-07T02:38:08.544Z,4.45
2023-04-07T02:40:36.682Z,4.54
2023-04-07T02:43:05.305Z,4.44
2023-04-07T02:45:33.401Z,4.34
2023-04-07T02:48:01.467Z,4.12
2023-04-07T02:50:29.372Z,3.87
2023-04-07T02:52:57.323Z,3.55
2023-04-07T02:55:26.621Z,3.69
2023-04-07T02:57:54.518Z,3.50
2023-04-07T03:00:22.466Z,3.52
2023-04-07T03:02:50.485Z,3.94
2023-04-07T03:05:18.513Z,4.14
2023-04-07T03:07:46.523Z,4.20
2023-04-07T03:10:14.433Z,4.26
2023-04-07T03:12:44.368Z,4.17
2023-04-07T03:15:12.596Z,4.12
2023-04-07T03:17:40.552Z,4.12
2023-04-07T03:20:09.649Z,3.92
2023-04-07T03:22:37.555Z,3.95
2023-04-07T03:25:06.184Z,3.96
2023-04-07T03:27:34.083Z,3.99
2023-04-07T03:30:03.538Z,4.00
2023-04-07T03:32:31.532Z,3.91
2023-04-07T03:34:59.427Z,3.88
2023-04-07T03:37:27.439Z,3.91
2023-04-07T03:39:55.360Z,3.98
2023-04-07T03:42:23.304Z,3.98
2023-04-07T03:44:51.350Z,3.49
2023-04-07T03:47:20.710Z,3.02
2023-04-07T03:49:48.586Z,2.93
2023-04-07T03:52:16.839Z,3.03
2023-04-07T03:54:44.773Z,2.71
2023-04-07T03:57:12.671Z,2.70
2023-04-07T03:59:40.731Z,2.66
2023-04-07T04:02:08.964Z,3.06
2023-04-07T04:04:38.487Z,3.26
2023-04-07T04:07:06.456Z,3.28
2023-04-07T04:09:34.328Z,2.86
2023-04-07T04:12:02.501Z,2.87
2023-04-07T04:14:30.430Z,3.02
2023-04-07T04:16:58.336Z,3.24
2023-04-07T04:19:26.328Z,3.35
2023-04-07T04:21:55.587Z,3.48
2023-04-07T04:24:23.487Z,3.49
2023-04-07T04:26:51.708Z,3.46
2023-04-07T04:29:19.611Z,3.33
2023-04-07T04:31:47.531Z,3.31
2023-04-07T04:34:15.640Z,3.22
2023-04-07T04:36:43.561Z,3.17
2023-04-07T04:39:12.870Z,3.20
2023-04-07T04:41:40.791Z,3.33
2023-04-07T04:44:08.842Z,3.22
2023-04-07T04:46:36.997Z,3.16
2023-04-07T04:49:04.971Z,3.06
2023-04-07T04:51:32.852Z,2.97
2023-04-07T04:54:00.740Z,2.90
2023-04-07T04:56:30.052Z,2.96
2023-04-07T04:58:57.927Z,2.95
2023-04-07T05:01:25.839Z,2.89
2023-04-07T05:03:54.265Z,2.72
2023-04-07T05:06:22.648Z,2.69
2023-04-07T05:08:50.547Z,2.84
2023-04-07T05:11:18.512Z,2.79
2023-04-07T05:13:47.804Z,2.75
2023-04-07T05:16:15.770Z,2.67
2023-04-07T05:18:43.767Z,2.79
2023-04-07T05:21:11.644Z,2.70
2023-04-07T05:23:39.513Z,2.77
2023-04-07T05:26:07.435Z,2.89
2023-04-07T05:28:35.378Z,2.92
2023-04-07T05:31:07.032Z,3.03
2023-04-07T05:33:35.573Z,3.11
2023-04-07T05:36:03.585Z,3.15
2023-04-07T05:38:31.518Z,3.19
2023-04-07T05:40:59.380Z,3.30
2023-04-07T05:43:27.259Z,3.38
2023-04-07T05:45:55.253Z,3.44
2023-04-07T05:48:24.512Z,3.54
2023-04-07T05:50:52.412Z,3.57
2023-04-07T05:53:20.326Z,3.61
2023-04-07T05:55:48.202Z,3.64
2023-04-07T05:58:16.616Z,3.75
2023-04-07T06:00:44.585Z,3.87
2023-04-07T06:03:12.645Z,3.91
2023-04-07T06:05:43.731Z,3.90
2023-04-07T06:08:11.856Z,3.92
2023-04-07T06:10:41.284Z,3.98
2023-04-07T06:13:09.351Z,4.07
2023-04-07T06:15:37.298Z,4.11
2023-04-07T06:18:05.349Z,4.19
2023-04-07T06:20:33.295Z,4.28
2023-04-07T06:23:02.576Z,4.37
2023-04-07T06:25:30.546Z,4.42
2023-04-07T06:27:58.461Z,4.53
2023-04-07T06:30:26.417Z,4.61
2023-04-07T06:32:55.006Z,4.67
2023-04-07T06:35:23.000Z,4.74
2023-04-07T06:37:50.936Z,4.85
2023-04-07T06:40:20.386Z,4.95
2023-04-07T06:42:48.270Z,5.05
2023-04-07T06:45:16.262Z,5.10
2023-04-07T06:47:44.213Z,5.22
2023-04-07T06:50:12.512Z,5.29
2023-04-07T06:52:40.656Z,5.38
2023-04-07T06:55:09.775Z,5.46
2023-04-07T06:57:39.062Z,5.60
2023-04-07T07:00:09.097Z,5.73
2023-04-07T07:02:37.311Z,5.86
2023-04-07T07:05:05.936Z,5.98
2023-04-07T07:07:33.863Z,6.07
2023-04-07T07:10:01.890Z,6.15
2023-04-07T07:12:29.796Z,6.27
2023-04-07T07:14:59.058Z,6.42
2023-04-07T07:17:27.057Z,6.56
2023-04-07T07:19:54.997Z,6.66
2023-04-07T07:22:23.066Z,6.75
2023-04-07T07:24:51.171Z,6.81
2023-04-07T07:27:19.110Z,6.87
2023-04-07T07:29:47.025Z,6.93
2023-04-07T07:32:16.339Z,7.01
2023-04-07T07:34:44.252Z,7.10
2023-04-07T07:37:12.509Z,7.16
2023-04-07T07:39:40.442Z,7.22
2023-04-07T07:42:08.331Z,7.29
2023-04-07T07:44:36.207Z,7.38
2023-04-07T07:47:04.106Z,7.38
2023-04-07T07:49:33.351Z,7.46
2023-04-07T07:52:01.374Z,7.50
2023-04-07T07:54:29.307Z,7.55
2023-04-07T07:56:57.446Z,7.65
2023-04-07T07:59:25.400Z,7.75
2023-04-07T08:01:53.394Z,7.94
2023-04-07T08:04:23.402Z,7.99
2023-04-07T08:06:53.343Z,8.19
2023-04-07T08:09:21.443Z,8.18
2023-04-07T08:11:49.531Z,8.25
2023-04-07T08:14:17.550Z,8.24
2023-04-07T08:16:46.447Z,8.26
2023-04-07T08:19:15.012Z,8.44
2023-04-07T08:21:42.989Z,8.43
2023-04-07T08:24:12.551Z,8.58
2023-04-07T08:26:40.622Z,8.60
2023-04-07T08:29:08.731Z,8.61
2023-04-07T08:31:36.664Z,8.73
2023-04-07T08:34:04.678Z,8.71
2023-04-07T08:36:32.782Z,8.95
2023-04-07T08:39:02.276Z,8.95
2023-04-07T08:41:35.220Z,9.35
2023-04-07T08:44:03.553Z,9.31
2023-04-07T08:46:31.846Z,9.27
2023-04-07T08:49:00.432Z,9.40
2023-04-07T08:51:29.820Z,9.40
2023-04-07T08:54:02.778Z,9.48
2023-04-07T08:56:33.618Z,9.54
2023-04-07T08:59:02.563Z,9.56
2023-04-07T09:01:30.941Z,9.78
2023-04-07T09:03:59.816Z,9.81
2023-04-07T09:06:28.244Z,9.89
2023-04-07T09:08:56.187Z,9.99
2023-04-07T09:11:24.755Z,10.07
2023-04-07T09:13:54.128Z,10.27
2023-04-07T09:16:22.176Z,10.19
2023-04-07T09:18:50.176Z,10.31
2023-04-07T09:21:18.106Z,10.38
2023-04-07T09:23:48.303Z,10.45
2023-04-07T09:26:24.520Z,10.43
2023-04-07T09:28:55.762Z,10.63
2023-04-07T09:31:26.326Z,10.68
2023-04-07T09:33:55.557Z,10.76
2023-04-07T09:36:27.162Z,10.98
2023-04-07T09:38:55.088Z,11.21
2023-04-07T09:41:23.081Z,11.33
2023-04-07T09:43:59.443Z,11.29
2023-04-07T09:46:28.126Z,11.32
2023-04-07T09:49:05.132Z,11.42
2023-04-07T09:51:34.380Z,11.45
2023-04-07T09:54:02.476Z,11.37
2023-04-07T09:56:30.523Z,11.54
2023-04-07T09:59:00.135Z,11.51
2023-04-07T10:01:28.290Z,11.55
2023-04-07T10:03:56.498Z,11.61
2023-04-07T10:06:25.575Z,11.77
2023-04-07T10:08:53.565Z,11.93
2023-04-07T10:11:21.491Z,12.07
2023-04-07T10:13:49.930Z,12.12
2023-04-07T10:16:19.768Z,12.33
2023-04-07T10:18:47.944Z,12.27
2023-04-07T10:21:18.270Z,12.44
2023-04-07T10:23:52.328Z,12.48
2023-04-07T10:26:24.543Z,12.43
2023-04-07T10:28:55.229Z,12.50
2023-04-07T10:31:45.971Z,12.68
2023-04-07T10:34:30.016Z,12.73
2023-04-07T10:37:19.208Z,12.68
2023-04-07T10:39:57.325Z,12.84
2023-04-07T10:42:47.792Z,12.90
2023-04-07T10:45:15.832Z,13.02
2023-04-07T10:48:16.062Z,13.11
2023-04-07T10:50:46.062Z,13.12
2023-04-07T10:53:15.114Z,13.34
2023-04-07T10:55:43.839Z,13.48
2023-04-07T10:58:22.624Z,13.57
2023-04-07T11:01:19.886Z,13.54
2023-04-07T11:03:57.795Z,13.83
2023-04-07T11:06:27.746Z,13.86
2023-04-07T11:08:55.785Z,14.02
2023-04-07T11:11:40.782Z,14.08
2023-04-07T11:17:22.022Z,13.94
2023-04-07T11:20:13.067Z,13.96
2023-04-07T11:22:42.452Z,13.94
2023-04-07T11:25:23.207Z,14.06
2023-04-07T11:27:51.644Z,14.15
2023-04-07T11:30:19.631Z,14.29
2023-04-07T11:32:51.455Z,14.24
2023-04-07T11:35:19.420Z,14.20
2023-04-07T11:37:48.772Z,14.45
2023-04-07T11:40:33.541Z,14.63
2023-04-07T11:43:02.142Z,14.49
2023-04-07T11:45:30.215Z,14.87
2023-04-07T11:47:58.204Z,14.79
2023-04-07T11:50:42.799Z,14.74
2023-04-07T11:53:12.462Z,14.87
2023-04-07T11:55:40.472Z,15.10
2023-04-07T11:58:10.213Z,15.37
2023-04-07T12:00:38.735Z,15.50
2023-04-07T12:03:14.759Z,15.34
2023-04-07T12:05:46.689Z,15.33
2023-04-07T12:08:16.753Z,15.54
2023-04-07T12:10:44.660Z,15.56
2023-04-07T12:13:15.207Z,15.53
2023-04-07T12:15:43.832Z,15.61
2023-04-07T12:18:17.625Z,15.68
2023-04-07T12:21:30.421Z,15.93
2023-04-07T12:24:02.380Z,15.91
2023-04-07T12:26:43.390Z,16.13
2023-04-07T12:29:11.705Z,16.29
2023-04-07T12:31:39.696Z,16.40
2023-04-07T12:34:07.625Z,16.30
2023-04-07T12:36:35.543Z,16.50
2023-04-07T12:39:05.274Z,16.76
2023-04-07T12:41:33.808Z,16.71
2023-04-07T12:44:01.785Z,16.73
2023-04-07T12:46:29.797Z,16.80
2023-04-07T12:48:57.784Z,16.87
2023-04-07T12:51:26.185Z,16.86
2023-04-07T12:53:54.767Z,16.71
2023-04-07T12:56:24.240Z,16.87
2023-04-07T12:58:52.147Z,17.07
2023-04-07T13:01:20.452Z,16.98
2023-04-07T13:03:48.640Z,17.38
2023-04-07T13:06:17.541Z,17.19
2023-04-07T13:08:45.433Z,17.41
2023-04-07T13:11:13.370Z,17.37
2023-04-07T13:13:42.665Z,17.41
2023-04-07T13:16:10.921Z,17.68
2023-04-07T13:18:38.808Z,17.39
2023-04-07T13:21:38.269Z,17.57
2023-04-07T13:23:55.291Z,17.61
2023-04-07T13:26:23.482Z,17.60
2023-04-07T13:28:53.081Z,17.81
2023-04-07T13:31:22.112Z,17.98
2023-04-07T13:33:50.378Z,18.06
2023-04-07T13:36:20.027Z,18.14
2023-04-07T13:38:49.755Z,18.22
2023-04-07T13:41:17.641Z,18.20
2023-04-07T13:43:45.564Z,18.10
2023-04-07T13:46:27.757Z,18.48
2023-04-07T13:48:56.637Z,18.55
2023-04-07T13:51:24.599Z,18.43
2023-04-07T13:53:52.613Z,18.57
2023-04-07T13:56:20.513Z,18.30
2023-04-07T13:58:48.416Z,18.21
2023-04-07T14:01:18.828Z,17.78
2023-04-07T14:03:48.092Z,18.20
2023-04-07T14:06:16.379Z,18.29
2023-04-07T14:08:44.313Z,18.28
2023-04-07T14:11:12.253Z,18.48
2023-04-07T14:13:40.348Z,18.80
2023-04-07T14:16:09.393Z,18.88
2023-04-07T14:18:38.753Z,18.83
2023-04-07T14:21:06.904Z,18.74
2023-04-07T14:23:37.609Z,18.82
2023-04-07T14:26:18.836Z,19.07
2023-04-07T14:28:47.556Z,19.11
2023-04-07T14:31:16.855Z,18.96
2023-04-07T14:33:46.706Z,18.93
2023-04-07T14:36:15.906Z,18.88
2023-04-07T14:38:44.449Z,18.95
2023-04-07T14:41:12.611Z,18.77
2023-04-07T14:43:41.278Z,18.80
2023-04-07T14:46:09.301Z,19.32
2023-04-07T14:48:37.256Z,19.13
2023-04-07T14:51:11.991Z,19.24
2023-04-07T14:53:40.226Z,19.00
2023-04-07T14:56:08.575Z,19.03
2023-04-07T14:58:38.941Z,18.88
2023-04-07T15:01:07.347Z,19.20
2023-04-07T15:03:36.681Z,19.34
2023-04-07T15:06:10.064Z,19.45
2023-04-07T15:08:38.138Z,19.60
2023-04-07T15:11:06.751Z,19.49
2023-04-07T15:13:34.827Z,19.51
2023-04-07T15:16:10.410Z,19.96
2023-04-07T15:18:40.438Z,19.99
2023-04-07T15:21:09.978Z,19.22
2023-04-07T15:23:38.872Z,19.71
2023-04-07T15:26:07.350Z,19.83
2023-04-07T15:28:35.387Z,19.89
2023-04-07T15:31:03.399Z,19.76
2023-04-07T15:33:31.316Z,19.55
2023-04-07T15:36:01.284Z,19.97
2023-04-07T15:38:30.845Z,20.01
2023-04-07T15:40:58.753Z,19.69
2023-04-07T15:43:26.688Z,19.17
2023-04-07T15:45:56.702Z,18.91
2023-04-07T15:48:24.707Z,18.48
2023-04-07T15:50:54.330Z,18.61
2023-04-07T15:53:22.247Z,18.60
2023-04-07T15:55:51.571Z,19.13
2023-04-07T15:58:19.626Z,18.96
2023-04-07T16:00:47.562Z,18.92
2023-04-07T16:03:15.759Z,19.11
2023-04-07T16:05:43.940Z,19.50
2023-04-07T16:08:13.718Z,18.70
2023-04-07T16:10:41.932Z,18.44
2023-04-07T16:13:11.363Z,18.22
2023-04-07T16:15:40.861Z,17.90
2023-04-07T16:18:12.089Z,18.20
2023-04-07T16:20:40.474Z,18.35
2023-04-07T16:23:08.362Z,18.50
2023-04-07T16:25:36.416Z,18.23
2023-04-07T16:28:04.422Z,18.16
2023-04-07T16:30:33.991Z,18.52
2023-04-07T16:35:31.024Z,17.26
2023-04-07T16:38:03.754Z,17.35
2023-04-07T16:40:32.105Z,17.72
2023-04-07T16:42:59.995Z,18.10
2023-04-07T16:45:27.997Z,18.34
2023-04-07T16:47:57.325Z,17.47
2023-04-07T16:50:25.429Z,17.78
2023-04-07T16:52:54.879Z,17.68
2023-04-07T16:55:23.013Z,17.87
2023-04-07T16:57:51.094Z,18.06
2023-04-07T17:00:20.179Z,18.34
2023-04-07T17:02:48.225Z,17.71
2023-04-07T17:05:18.375Z,17.20
2023-04-07T17:07:46.330Z,16.86
2023-04-07T17:10:14.636Z,15.67
2023-04-07T17:12:42.598Z,14.91
2023-04-07T17:15:11.228Z,15.25
2023-04-07T17:17:39.451Z,14.85
2023-04-07T17:20:08.895Z,14.70
2023-04-07T17:22:38.154Z,14.19
2023-04-07T17:25:06.850Z,15.02
2023-04-07T17:27:34.915Z,14.83
2023-04-07T17:30:03.295Z,14.15
2023-04-07T17:32:31.584Z,14.36
2023-04-07T17:34:59.582Z,14.36
2023-04-07T17:37:27.516Z,14.21
2023-04-07T17:39:56.795Z,13.54
2023-04-07T17:42:24.771Z,13.35
2023-04-07T17:44:54.221Z,13.17
2023-04-07T17:47:22.130Z,12.93
2023-04-07T17:49:50.056Z,12.87
2023-04-07T17:52:17.992Z,12.66
2023-04-07T17:54:46.250Z,12.96
2023-04-07T17:57:15.897Z,12.77
2023-04-07T17:59:43.923Z,12.68
2023-04-07T18:02:12.069Z,12.41
2023-04-07T18:04:40.566Z,12.42
2023-04-07T18:07:08.607Z,12.35
2023-04-07T18:09:36.877Z,12.31
2023-04-07T18:12:05.045Z,12.09
2023-04-07T18:14:34.326Z,11.91
2023-04-07T18:17:02.252Z,11.79
2023-04-07T18:19:31.044Z,11.86
2023-04-07T18:22:00.060Z,11.81
2023-04-07T18:24:28.065Z,11.70
2023-04-07T18:26:56.776Z,11.67
2023-04-07T18:29:24.766Z,11.64
2023-04-07T18:31:54.089Z,11.58
2023-04-07T18:34:21.987Z,11.52
2023-04-07T18:36:49.965Z,11.40
2023-04-07T18:39:17.848Z,10.85
2023-04-07T18:41:47.413Z,10.85
2023-04-07T18:44:15.636Z,10.87
2023-04-07T18:46:43.679Z,11.16
2023-04-07T18:49:13.146Z,11.04
2023-04-07T18:51:41.798Z,10.97
2023-04-07T18:54:09.694Z,10.89
2023-04-07T18:56:37.679Z,10.89
2023-04-07T18:59:07.344Z,10.65
2023-04-07T19:01:35.662Z,10.72
2023-04-07T19:04:03.714Z,10.72
2023-04-07T19:06:33.156Z,10.74
2023-04-07T19:09:01.055Z,10.66
2023-04-07T19:11:28.959Z,10.54
2023-04-07T19:13:57.008Z,10.62
2023-04-07T19:16:25.544Z,10.52
2023-04-07T19:18:53.671Z,10.44
2023-04-07T19:21:21.675Z,10.57
2023-04-07T19:23:51.292Z,10.36
2023-04-07T19:26:19.427Z,10.34
2023-04-07T19:28:48.372Z,10.33
2023-04-07T19:31:16.498Z,10.43
2023-04-07T19:33:44.496Z,10.41
2023-04-07T19:36:12.439Z,10.37
2023-04-07T19:38:40.578Z,10.30
2023-04-07T19:41:10.044Z,10.25
2023-04-07T19:43:37.949Z,10.05
2023-04-07T19:46:06.433Z,9.91
2023-04-07T19:48:34.461Z,10.05
2023-04-07T19:51:02.396Z,9.93
2023-04-07T19:53:30.308Z,10.06
2023-04-07T19:55:58.252Z,10.00
2023-04-07T19:58:27.574Z,10.00
2023-04-07T20:00:55.488Z,9.75
2023-04-07T20:03:24.174Z,9.80
2023-04-07T20:05:52.938Z,9.79
2023-04-07T20:08:20.846Z,9.58
2023-04-07T20:10:48.856Z,9.72
2023-04-07T20:13:16.820Z,9.89
2023-04-07T20:15:46.831Z,9.92
2023-04-07T20:18:16.924Z,9.63
2023-04-07T20:20:44.857Z,9.63
2023-04-07T20:23:12.868Z,9.71
2023-04-07T20:25:40.788Z,9.70
2023-04-07T20:28:08.824Z,9.67
2023-04-07T20:30:36.760Z,9.68
2023-04-07T20:33:06.173Z,9.67
2023-04-07T20:35:34.202Z,9.60
2023-04-07T20:38:02.749Z,9.44
2023-04-07T20:40:30.727Z,9.51
2023-04-07T20:42:58.631Z,9.54
2023-04-07T20:45:27.648Z,9.73
2023-04-07T20:47:56.560Z,9.63
2023-04-07T20:50:25.934Z,9.62
2023-04-07T20:52:53.902Z,9.31
2023-04-07T20:55:21.828Z,9.50
2023-04-07T20:57:49.922Z,9.51
2023-04-07T21:00:19.023Z,9.55
2023-04-07T21:02:48.706Z,9.63
2023-04-07T21:05:16.771Z,9.69
2023-04-07T21:07:46.043Z,9.61
2023-04-07T21:10:14.443Z,9.66
2023-04-07T21:12:42.471Z,9.51
2023-04-07T21:15:11.481Z,9.50
2023-04-07T21:17:39.533Z,9.50
2023-04-07T21:20:08.685Z,9.46
2023-04-07T21:22:36.621Z,9.47
2023-04-07T21:25:07.241Z,9.36
2023-04-07T21:27:36.102Z,9.16
2023-04-07T21:30:05.651Z,9.22
2023-04-07T21:32:34.205Z,9.25
2023-04-07T21:35:02.243Z,9.11
2023-04-07T21:37:30.165Z,9.32
2023-04-07T21:39:58.330Z,9.12
2023-04-07T21:42:27.627Z,9.10
2023-04-07T21:44:55.867Z,9.19
2023-04-07T21:47:23.783Z,9.16
2023-04-07T21:49:51.683Z,9.16
2023-04-07T21:52:19.879Z,9.19
2023-04-07T21:54:47.942Z,9.21
2023-04-07T21:57:15.878Z,9.22
2023-04-07T21:59:45.206Z,9.18
2023-04-07T22:02:13.638Z,9.28
2023-04-07T22:04:41.996Z,9.22
2023-04-07T22:07:10.046Z,8.93
2023-04-07T22:09:38.096Z,9.06
2023-04-07T22:12:06.110Z,9.08
2023-04-07T22:14:33.999Z,9.06
2023-04-07T22:17:03.555Z,9.04
2023-04-07T22:19:31.483Z,9.07
2023-04-07T22:21:59.407Z,9.10
2023-04-07T22:24:27.355Z,9.01
2023-04-07T22:26:55.957Z,8.92
2023-04-07T22:29:24.003Z,8.85
2023-04-07T22:31:51.893Z,8.89
2023-04-07T22:34:21.254Z,8.93
2023-04-07T22:36:49.134Z,8.91
2023-04-07T22:39:17.077Z,8.92
2023-04-07T22:41:44.985Z,8.80
2023-04-07T22:44:12.890Z,8.76
2023-04-07T22:46:41.017Z,8.87
2023-04-07T22:49:08.953Z,8.87
2023-04-07T22:51:38.669Z,8.82
2023-04-07T22:54:06.717Z,8.75
2023-04-07T22:56:34.624Z,8.78
2023-04-07T22:59:05.677Z,8.77
2023-04-07T23:01:34.236Z,8.77
2023-04-07T23:04:02.231Z,8.76
2023-04-07T23:06:30.186Z,8.79
2023-04-07T23:08:59.515Z,8.70
2023-04-07T23:11:27.437Z,8.69
2023-04-07T23:13:55.329Z,8.74
2023-04-07T23:16:23.743Z,8.71
2023-04-07T23:18:51.888Z,8.64
2023-04-07T23:21:20.075Z,8.74
2023-04-07T23:23:48.692Z,8.66
2023-04-07T23:26:18.012Z,8.76
2023-04-07T23:28:46.351Z,8.57
2023-04-07T23:31:14.546Z,8.63
2023-04-07T23:33:42.538Z,8.66
2023-04-07T23:36:10.476Z,8.70
2023-04-07T23:38:39.617Z,8.69
2023-04-07T23:41:07.780Z,8.57
2023-04-07T23:43:37.111Z,8.51
2023-04-07T23:46:05.072Z,8.58
2023-04-07T23:48:33.009Z,8.50
2023-04-07T23:51:00.942Z,8.58
2023-04-07T23:53:28.813Z,8.47
2023-04-07T23:55:56.959Z,8.59
2023-04-07T23:58:24.977Z,8.48
